createdAt,value
2018-02-17T00:02:10.815Z,43.10
2018-02-17T00:04:39.285Z,44.93
2018-02-17T00:07:07.795Z,44.00
2018-02-17T00:09:36.334Z,44.77
2018-02-17T00:12:04.849Z,43.83
2018-02-17T00:14:33.354Z,43.10
2018-02-17T00:17:01.818Z,43.30
2018-02-17T00:19:30.314Z,43.77
2018-02-17T00:21:58.794Z,43.03
2018-02-17T00:24:27.318Z,44.10
2018-02-17T00:26:55.802Z,44.87
2018-02-17T00:29:24.381Z,44.30
2018-02-17T00:31:52.844Z,45.10
2018-02-17T00:34:21.322Z,45.27
2018-02-17T00:36:49.835Z,44.90
2018-02-17T00:39:18.299Z,44.57
2018-02-17T00:41:46.820Z,42.30
2018-02-17T00:44:15.291Z,42.20
2018-02-17T00:46:43.795Z,44.03
2018-02-17T00:49:12.282Z,43.13
2018-02-17T00:51:40.808Z,45.07
2018-02-17T00:54:09.314Z,42.30
2018-02-17T00:56:37.785Z,41.87
2018-02-17T00:59:06.302Z,46.03
2018-02-17T01:01:34.805Z,45.50
2018-02-17T01:04:03.331Z,44.93
2018-02-17T01:06:31.806Z,45.53
2018-02-17T01:09:00.306Z,46.90
2018-02-17T01:11:28.787Z,45.47
2018-02-17T01:13:57.310Z,45.70
2018-02-17T01:16:25.813Z,44.80
2018-02-17T01:18:54.290Z,43.67
2018-02-17T01:21:22.798Z,44.33
2018-02-17T01:23:51.268Z,47.47
2018-02-17T01:26:19.798Z,47.80
2018-02-17T01:28:48.275Z,44.60
2018-02-17T01:31:16.789Z,46.20
2018-02-17T01:33:45.250Z,48.30
2018-02-17T01:36:13.726Z,46.47
2018-02-17T01:38:42.242Z,47.97
2018-02-17T01:41:10.715Z,44.60
2018-02-17T01:43:39.210Z,47.90
2018-02-17T01:46:07.682Z,46.93
2018-02-17T01:48:36.209Z,47.43
2018-02-17T01:51:04.678Z,49.10
2018-02-17T01:53:33.166Z,48.10
2018-02-17T01:56:01.701Z,49.90
2018-02-17T01:58:30.228Z,49.47
2018-02-17T02:00:58.761Z,48.80
2018-02-17T02:03:27.261Z,50.30
2018-02-17T02:05:55.722Z,47.43
2018-02-17T02:08:24.251Z,48.07
2018-02-17T02:10:52.727Z,50.40
2018-02-17T02:13:21.225Z,48.03
2018-02-17T02:15:49.730Z,48.13
2018-02-17T02:18:18.179Z,53.63
2018-02-17T02:20:46.694Z,54.93
2018-02-17T02:23:15.159Z,55.87
2018-02-17T02:25:43.679Z,57.53
2018-02-17T02:28:12.178Z,53.13
2018-02-17T02:30:40.628Z,56.70
2018-02-17T02:33:09.146Z,56.23
2018-02-17T02:35:37.630Z,56.30
2018-02-17T02:38:06.098Z,55.17
2018-02-17T02:40:34.603Z,54.33
2018-02-17T02:43:03.107Z,52.67
2018-02-17T02:45:31.599Z,52.23
2018-02-17T02:48:00.082Z,54.33
2018-02-17T02:50:28.546Z,50.10
2018-02-17T02:52:57.046Z,52.40
2018-02-17T02:55:25.574Z,48.60
2018-02-17T02:57:54.042Z,50.93
2018-02-17T03:00:22.543Z,47.97
2018-02-17T03:02:51.010Z,48.27
2018-02-17T03:05:19.569Z,50.37
2018-02-17T03:07:48.074Z,51.80
2018-02-17T03:10:16.588Z,50.70
2018-02-17T03:12:45.063Z,48.07
2018-02-17T03:15:13.601Z,43.33
2018-02-17T03:17:42.094Z,44.77
2018-02-17T03:20:10.622Z,45.90
2018-02-17T03:22:39.086Z,43.30
2018-02-17T03:25:07.561Z,44.03
2018-02-17T03:27:36.087Z,47.77
2018-02-17T03:30:04.583Z,48.13
2018-02-17T03:32:33.116Z,48.33
2018-02-17T03:35:01.635Z,47.07
2018-02-17T03:37:30.138Z,48.27
2018-02-17T03:39:58.620Z,48.27
2018-02-17T03:42:27.114Z,46.53
2018-02-17T03:44:55.559Z,44.80
2018-02-17T03:47:24.111Z,47.17
2018-02-17T03:49:52.580Z,48.23
2018-02-17T03:52:21.075Z,46.20
2018-02-17T03:54:49.607Z,43.90
2018-02-17T03:57:18.150Z,41.27
2018-02-17T03:59:46.641Z,39.77
2018-02-17T04:02:15.154Z,39.37
2018-02-17T04:04:43.645Z,37.70
2018-02-17T04:07:12.169Z,37.53
2018-02-17T04:09:40.641Z,38.43
2018-02-17T04:12:09.102Z,40.33
2018-02-17T04:14:37.601Z,42.13
2018-02-17T04:17:06.098Z,39.70
2018-02-17T04:19:34.614Z,39.93
2018-02-17T04:22:03.121Z,41.40
2018-02-17T04:24:31.618Z,40.00
2018-02-17T04:27:00.115Z,40.83
2018-02-17T04:29:28.642Z,41.07
2018-02-17T04:31:57.137Z,41.30
2018-02-17T04:34:25.603Z,42.03
2018-02-17T04:36:54.187Z,41.70
2018-02-17T04:39:22.773Z,42.73
2018-02-17T04:41:51.821Z,42.07
2018-02-17T04:44:22.144Z,42.43
2018-02-17T04:46:56.603Z,45.57
2018-02-17T04:49:25.142Z,42.13
2018-02-17T04:52:08.489Z,42.10
2018-02-17T04:54:44.436Z,42.43
2018-02-17T04:57:13.711Z,42.67
2018-02-17T05:02:47.201Z,43.17
2018-02-17T05:05:15.693Z,40.27
2018-02-17T05:07:45.192Z,42.10
2018-02-17T05:10:13.718Z,41.00
2018-02-17T05:12:42.235Z,41.60
2018-02-17T05:15:19.198Z,42.10
2018-02-17T05:20:53.714Z,40.77
2018-02-17T05:23:27.541Z,41.13
2018-02-17T05:25:58.954Z,43.50
2018-02-17T05:31:30.785Z,43.77
2018-02-17T05:33:59.398Z,44.23
2018-02-17T05:36:31.555Z,43.73
2018-02-17T05:39:00.463Z,44.87
2018-02-17T05:41:29.002Z,42.40
2018-02-17T05:43:57.506Z,45.47
2018-02-17T05:46:28.583Z,45.07
2018-02-17T05:48:57.048Z,44.53
2018-02-17T05:51:25.637Z,44.63
2018-02-17T05:53:54.097Z,43.70
2018-02-17T05:56:22.566Z,42.87
2018-02-17T05:58:51.078Z,42.50
2018-02-17T06:01:19.542Z,45.43
2018-02-17T06:03:48.046Z,47.33
2018-02-17T06:06:16.560Z,54.37
2018-02-17T06:08:45.057Z,69.40
2018-02-17T06:11:13.595Z,64.43
2018-02-17T06:13:42.111Z,58.90
2018-02-17T06:16:10.611Z,50.03
2018-02-17T06:18:39.087Z,44.77
2018-02-17T06:21:07.594Z,46.77
2018-02-17T06:23:36.098Z,57.47
2018-02-17T06:26:04.602Z,60.63
2018-02-17T06:28:33.078Z,60.77
2018-02-17T06:31:01.585Z,69.00
2018-02-17T06:33:30.099Z,64.70
2018-02-17T06:35:58.601Z,85.50
2018-02-17T06:38:27.113Z,78.77
2018-02-17T06:40:55.619Z,74.57
2018-02-17T06:43:24.134Z,68.40
2018-02-17T06:45:52.619Z,61.43
2018-02-17T06:48:21.136Z,59.73
2018-02-17T06:50:49.642Z,49.90
2018-02-17T06:53:18.152Z,51.23
2018-02-17T06:55:46.662Z,48.37
2018-02-17T06:58:15.163Z,47.70
2018-02-17T07:00:43.673Z,49.50
2018-02-17T07:03:12.178Z,48.33
2018-02-17T07:05:40.674Z,45.27
2018-02-17T07:08:09.119Z,45.60
2018-02-17T07:10:37.617Z,43.77
2018-02-17T07:13:06.128Z,42.50
2018-02-17T07:15:34.591Z,44.03
2018-02-17T07:18:03.092Z,46.07
2018-02-17T07:20:31.545Z,46.93
2018-02-17T07:23:00.064Z,46.63
2018-02-17T07:25:28.554Z,44.90
2018-02-17T07:27:57.029Z,44.17
2018-02-17T07:30:25.529Z,43.17
2018-02-17T07:32:54.014Z,44.03
2018-02-17T07:35:22.474Z,43.63
2018-02-17T07:37:50.939Z,45.37
2018-02-17T07:40:19.502Z,46.03
2018-02-17T07:42:47.932Z,45.90
2018-02-17T07:45:16.399Z,42.03
2018-02-17T07:47:44.906Z,45.47
2018-02-17T07:50:13.405Z,44.33
2018-02-17T07:52:41.870Z,44.10
2018-02-17T07:55:10.376Z,44.03
2018-02-17T07:57:38.834Z,45.70
2018-02-17T08:00:07.314Z,43.77
2018-02-17T08:02:35.830Z,44.67
2018-02-17T08:05:04.413Z,48.07
2018-02-17T08:07:32.878Z,49.23
2018-02-17T08:10:01.353Z,50.67
2018-02-17T08:12:29.853Z,52.23
2018-02-17T08:14:58.331Z,52.47
2018-02-17T08:17:26.812Z,57.60
2018-02-17T08:19:55.333Z,55.67
2018-02-17T08:22:23.840Z,50.87
2018-02-17T08:24:52.310Z,51.47
2018-02-17T08:27:20.810Z,52.77
2018-02-17T08:29:49.274Z,50.93
2018-02-17T08:32:17.781Z,47.47
2018-02-17T08:34:46.260Z,47.17
2018-02-17T08:37:14.759Z,45.07
2018-02-17T08:39:43.250Z,43.63
2018-02-17T08:42:11.766Z,45.93
2018-02-17T08:44:40.226Z,48.27
2018-02-17T08:47:08.737Z,52.27
2018-02-17T08:49:37.220Z,49.30
2018-02-17T08:52:05.773Z,46.60
2018-02-17T08:54:34.286Z,45.90
2018-02-17T08:57:02.795Z,43.80
2018-02-17T08:59:31.254Z,43.63
2018-02-17T09:01:59.750Z,41.90
2018-02-17T09:04:28.214Z,35.83
2018-02-17T09:06:56.723Z,34.23
2018-02-17T09:09:25.181Z,34.97
2018-02-17T09:11:53.706Z,33.87
2018-02-17T09:14:22.198Z,34.50
2018-02-17T09:16:50.666Z,32.53
2018-02-17T09:19:19.166Z,33.57
2018-02-17T09:21:47.671Z,32.90
2018-02-17T09:24:16.152Z,33.50
2018-02-17T09:26:44.654Z,35.73
2018-02-17T09:29:13.122Z,35.50
2018-02-17T09:31:41.626Z,33.50
2018-02-17T09:34:10.086Z,33.80
2018-02-17T09:36:38.555Z,29.93
2018-02-17T09:39:07.107Z,31.63
2018-02-17T09:41:35.566Z,32.10
2018-02-17T09:44:04.064Z,32.93
2018-02-17T09:46:32.542Z,30.93
2018-02-17T09:49:00.999Z,32.33
2018-02-17T09:51:29.530Z,33.03
2018-02-17T09:53:58.078Z,30.90
2018-02-17T09:56:26.538Z,33.03
2018-02-17T09:58:54.997Z,35.33
2018-02-17T10:01:24.296Z,36.90
2018-02-17T10:03:52.767Z,34.33
2018-02-17T10:06:21.245Z,33.23
2018-02-17T10:08:49.750Z,34.57
2018-02-17T10:11:18.224Z,33.57
2018-02-17T10:13:46.722Z,32.43
2018-02-17T10:16:15.187Z,29.27
2018-02-17T10:18:43.683Z,30.07
2018-02-17T10:21:12.161Z,31.03
2018-02-17T10:23:40.682Z,29.67
2018-02-17T10:26:09.154Z,30.60
2018-02-17T10:28:37.678Z,30.17
2018-02-17T10:31:06.213Z,29.50
2018-02-17T10:33:34.683Z,29.67
2018-02-17T10:36:03.150Z,31.03
2018-02-17T10:38:31.658Z,32.33
2018-02-17T10:41:00.158Z,29.77
2018-02-17T10:43:28.624Z,28.87
2018-02-17T10:45:57.130Z,28.10
2018-02-17T10:48:25.602Z,28.33
2018-02-17T10:50:54.110Z,27.80
2018-02-17T10:53:22.620Z,28.40
2018-02-17T10:55:51.086Z,28.27
2018-02-17T10:58:19.550Z,26.23
2018-02-17T11:00:48.058Z,27.40
2018-02-17T11:03:16.542Z,27.60
2018-02-17T11:05:45.020Z,26.17
2018-02-17T11:08:13.519Z,26.47
2018-02-17T11:10:41.995Z,25.00
2018-02-17T11:13:10.494Z,26.17
2018-02-17T11:15:38.964Z,25.90
2018-02-17T11:18:07.465Z,25.80
2018-02-17T11:20:35.929Z,24.97
2018-02-17T11:23:04.465Z,26.53
2018-02-17T11:25:32.938Z,26.20
2018-02-17T11:28:01.420Z,27.03
2018-02-17T11:30:29.935Z,27.57
2018-02-17T11:32:58.398Z,27.07
2018-02-17T11:35:26.858Z,28.37
2018-02-17T11:37:55.358Z,30.47
2018-02-17T11:40:23.870Z,31.83
2018-02-17T11:42:52.335Z,35.47
2018-02-17T11:45:20.850Z,38.60
2018-02-17T11:47:49.318Z,35.83
2018-02-17T11:50:17.792Z,38.23
2018-02-17T11:52:46.324Z,37.17
2018-02-17T11:55:14.810Z,37.87
2018-02-17T11:57:43.342Z,36.20
2018-02-17T12:00:11.810Z,36.73
2018-02-17T12:02:40.318Z,36.93
2018-02-17T12:05:08.783Z,38.13
2018-02-17T12:07:37.290Z,36.67
2018-02-17T12:10:05.794Z,35.67
2018-02-17T12:12:34.326Z,35.10
2018-02-17T12:15:02.853Z,34.50
2018-02-17T12:17:31.319Z,38.00
2018-02-17T12:19:59.836Z,31.93
2018-02-17T12:22:28.351Z,31.03
2018-02-17T12:24:56.814Z,28.80
2018-02-17T12:27:25.275Z,28.57
2018-02-17T12:29:53.774Z,26.53
2018-02-17T12:32:22.248Z,31.13
2018-02-17T12:34:50.754Z,28.60
2018-02-17T12:37:19.262Z,29.17
2018-02-17T12:39:47.797Z,30.07
2018-02-17T12:42:16.265Z,28.97
2018-02-17T12:44:44.762Z,29.37
2018-02-17T12:47:13.266Z,28.57
2018-02-17T12:49:41.729Z,28.27
2018-02-17T12:52:10.195Z,27.30
2018-02-17T12:54:38.694Z,28.00
2018-02-17T12:57:07.143Z,27.27
2018-02-17T12:59:35.635Z,28.47
2018-02-17T13:02:04.102Z,22.67
2018-02-17T13:04:32.580Z,24.50
2018-02-17T13:07:01.078Z,28.50
2018-02-17T13:09:29.576Z,26.23
2018-02-17T13:11:58.049Z,27.13
2018-02-17T13:14:26.556Z,25.37
2018-02-17T13:16:55.139Z,24.67
2018-02-17T13:19:23.618Z,25.27
2018-02-17T13:21:52.085Z,26.17
2018-02-17T13:24:20.554Z,26.00
2018-02-17T13:26:49.061Z,24.37
2018-02-17T13:29:17.531Z,22.90
2018-02-17T13:31:46.059Z,21.73
2018-02-17T13:34:14.526Z,23.60
2018-02-17T13:36:43.038Z,21.57
2018-02-17T13:39:11.502Z,25.17
2018-02-17T13:41:40.007Z,22.10
2018-02-17T13:44:08.521Z,24.40
2018-02-17T13:46:37.002Z,25.50
2018-02-17T13:49:05.510Z,25.90
2018-02-17T13:51:33.978Z,24.37
2018-02-17T13:54:02.478Z,23.07
2018-02-17T13:56:30.959Z,22.23
2018-02-17T13:58:59.478Z,22.50
2018-02-17T14:01:27.975Z,21.20
2018-02-17T14:03:56.450Z,20.23
2018-02-17T14:06:25.003Z,21.77
2018-02-17T14:08:53.488Z,21.37
2018-02-17T14:11:22.002Z,20.00
2018-02-17T14:13:50.474Z,20.10
2018-02-17T14:16:18.954Z,21.57
2018-02-17T14:18:47.474Z,22.03
2018-02-17T14:21:16.006Z,21.30
2018-02-17T14:23:44.483Z,20.10
2018-02-17T14:26:12.953Z,20.97
2018-02-17T14:28:41.437Z,21.60
2018-02-17T14:31:09.906Z,23.40
2018-02-17T14:33:38.401Z,22.37
2018-02-17T14:36:06.870Z,20.93
2018-02-17T14:38:35.390Z,24.43
2018-02-17T14:41:03.898Z,21.23
2018-02-17T14:43:32.407Z,21.80
2018-02-17T14:46:00.911Z,20.87
2018-02-17T14:48:29.387Z,22.70
2018-02-17T14:50:57.901Z,22.23
2018-02-17T14:53:26.370Z,23.17
2018-02-17T14:55:54.838Z,22.10
2018-02-17T14:58:23.372Z,22.73
2018-02-17T15:00:51.884Z,21.30
2018-02-17T15:03:20.403Z,22.27
2018-02-17T15:05:48.902Z,23.33
2018-02-17T15:08:17.406Z,22.50
2018-02-17T15:10:45.887Z,23.37
2018-02-17T15:13:14.386Z,24.13
2018-02-17T15:15:42.896Z,24.90
2018-02-17T15:18:11.392Z,25.10
2018-02-17T15:20:39.900Z,25.67
2018-02-17T15:23:08.376Z,26.27
2018-02-17T15:25:36.874Z,28.37
2018-02-17T15:28:05.330Z,27.23
2018-02-17T15:30:33.843Z,28.20
2018-02-17T15:33:02.306Z,29.17
2018-02-17T15:35:30.778Z,31.87
2018-02-17T15:37:59.359Z,30.90
2018-02-17T15:40:27.934Z,32.43
2018-02-17T15:42:56.398Z,33.30
2018-02-17T15:45:24.881Z,33.23
2018-02-17T15:47:53.379Z,32.47
2018-02-17T15:50:21.887Z,31.17
2018-02-17T15:52:50.385Z,32.60
2018-02-17T15:55:18.862Z,32.67
2018-02-17T15:57:47.369Z,32.60
2018-02-17T16:00:15.830Z,32.43
2018-02-17T16:02:44.333Z,32.67
2018-02-17T16:05:12.791Z,32.03
2018-02-17T16:07:41.303Z,33.00
2018-02-17T16:10:09.808Z,32.13
2018-02-17T16:12:38.312Z,31.70
2018-02-17T16:15:06.811Z,31.07
2018-02-17T16:17:35.278Z,33.60
2018-02-17T16:20:03.846Z,30.27
2018-02-17T16:22:32.334Z,32.10
2018-02-17T16:25:00.823Z,30.67
2018-02-17T16:27:29.330Z,30.80
2018-02-17T16:29:57.834Z,32.07
2018-02-17T16:32:26.334Z,32.20
2018-02-17T16:34:54.798Z,48.40
2018-02-17T16:37:23.318Z,63.20
2018-02-17T16:39:51.822Z,45.17
2018-02-17T16:42:20.282Z,36.20
2018-02-17T16:44:48.752Z,32.30
2018-02-17T16:47:17.269Z,32.47
2018-02-17T16:49:45.748Z,32.93
2018-02-17T16:52:14.305Z,36.43
2018-02-17T16:54:42.787Z,34.07
2018-02-17T16:57:11.300Z,35.87
2018-02-17T16:59:39.762Z,36.93
2018-02-17T17:02:08.274Z,36.10
2018-02-17T17:04:36.738Z,35.43
2018-02-17T17:07:05.220Z,38.10
2018-02-17T17:09:33.722Z,37.40
2018-02-17T17:12:02.242Z,36.80
2018-02-17T17:14:30.734Z,38.77
2018-02-17T17:16:59.202Z,37.00
2018-02-17T17:19:27.702Z,37.13
2018-02-17T17:21:56.171Z,39.00
2018-02-17T17:24:24.689Z,41.27
2018-02-17T17:26:53.214Z,41.00
2018-02-17T17:29:21.746Z,38.10
2018-02-17T17:31:50.219Z,37.87
2018-02-17T17:34:18.694Z,38.17
2018-02-17T17:36:47.212Z,43.73
2018-02-17T17:39:15.724Z,40.37
2018-02-17T17:41:44.222Z,41.90
2018-02-17T17:44:12.742Z,41.70
2018-02-17T17:46:41.214Z,41.87
2018-02-17T17:49:09.720Z,41.63
2018-02-17T17:51:38.202Z,42.67
2018-02-17T17:54:06.650Z,43.53
2018-02-17T17:56:35.167Z,42.53
2018-02-17T17:59:03.630Z,43.60
2018-02-17T18:01:32.162Z,41.60
2018-02-17T18:04:00.625Z,42.13
2018-02-17T18:06:29.129Z,40.93
2018-02-17T18:08:57.659Z,42.63
2018-02-17T18:11:26.135Z,43.97
2018-02-17T18:13:54.634Z,41.30
2018-02-17T18:16:23.106Z,43.00
2018-02-17T18:18:51.607Z,45.27
2018-02-17T18:21:20.135Z,42.30
2018-02-17T18:23:48.625Z,49.80
2018-02-17T18:26:17.095Z,44.73
2018-02-17T18:28:45.598Z,51.67
2018-02-17T18:31:14.047Z,47.27
2018-02-17T18:33:42.570Z,46.90
2018-02-17T18:36:11.052Z,47.90
2018-02-17T18:38:39.590Z,47.13
2018-02-17T18:41:08.062Z,49.73
2018-02-17T18:43:36.582Z,48.37
2018-02-17T18:46:05.055Z,46.73
2018-02-17T18:48:33.568Z,46.97
2018-02-17T18:51:02.084Z,55.23
2018-02-17T18:53:30.586Z,57.27
2018-02-17T18:55:59.051Z,58.20
2018-02-17T18:58:27.557Z,59.30
2018-02-17T19:00:56.024Z,61.47
2018-02-17T19:03:24.520Z,58.37
2018-02-17T19:05:53.036Z,59.83
2018-02-17T19:08:21.503Z,53.40
2018-02-17T19:10:50.032Z,54.17
2018-02-17T19:13:18.513Z,54.47
2018-02-17T19:15:47.015Z,53.87
2018-02-17T19:18:15.492Z,52.30
2018-02-17T19:20:43.994Z,53.93
2018-02-17T19:23:12.462Z,53.53
2018-02-17T19:25:40.972Z,51.53
2018-02-17T19:28:09.479Z,53.03
2018-02-17T19:30:37.978Z,51.97
2018-02-17T19:33:06.474Z,54.00
2018-02-17T19:35:34.944Z,56.63
2018-02-17T19:38:03.442Z,56.17
2018-02-17T19:40:32.785Z,65.00
2018-02-17T19:43:01.291Z,63.43
2018-02-17T19:45:29.768Z,61.50
2018-02-17T19:47:58.283Z,60.87
2018-02-17T19:50:26.766Z,58.37
2018-02-17T19:52:55.231Z,56.00
2018-02-17T19:55:23.754Z,59.47
2018-02-17T19:57:52.240Z,56.27
2018-02-17T20:00:20.742Z,59.00
2018-02-17T20:02:49.206Z,61.63
2018-02-17T20:05:17.709Z,58.97
2018-02-17T20:07:46.206Z,57.93
2018-02-17T20:10:14.702Z,57.93
2018-02-17T20:12:43.213Z,57.73
2018-02-17T20:15:11.721Z,57.57
2018-02-17T20:17:40.271Z,59.50
2018-02-17T20:20:08.736Z,62.47
2018-02-17T20:22:37.220Z,59.20
2018-02-17T20:25:05.732Z,59.47
2018-02-17T20:27:34.198Z,60.53
2018-02-17T20:30:02.707Z,63.63
2018-02-17T20:32:31.215Z,59.87
2018-02-17T20:34:59.738Z,61.73
2018-02-17T20:37:28.238Z,60.53
2018-02-17T20:39:56.724Z,59.07
2018-02-17T20:42:25.246Z,58.13
2018-02-17T20:44:53.691Z,57.70
2018-02-17T20:47:22.200Z,55.87
2018-02-17T20:49:50.680Z,58.30
2018-02-17T20:52:19.178Z,56.07
2018-02-17T20:54:47.690Z,55.50
2018-02-17T20:57:16.197Z,56.43
2018-02-17T20:59:44.700Z,58.43
2018-02-17T21:02:13.174Z,57.13
2018-02-17T21:04:41.701Z,59.00
2018-02-17T21:07:10.158Z,60.37
2018-02-17T21:09:38.666Z,59.37
2018-02-17T21:12:07.133Z,58.90
2018-02-17T21:14:35.641Z,56.83
2018-02-17T21:17:04.122Z,58.47
2018-02-17T21:19:32.594Z,56.93
2018-02-17T21:22:01.066Z,59.27
2018-02-17T21:24:29.534Z,61.20
2018-02-17T21:26:58.030Z,61.77
2018-02-17T21:29:26.506Z,57.80
2018-02-17T21:31:55.002Z,58.23
2018-02-17T21:34:23.525Z,58.10
2018-02-17T21:36:52.033Z,56.67
2018-02-17T21:39:20.538Z,57.87
2018-02-17T21:41:49.006Z,56.23
2018-02-17T21:44:17.510Z,60.30
2018-02-17T21:46:45.970Z,61.07
2018-02-17T21:49:14.504Z,61.97
2018-02-17T21:51:42.970Z,60.40
2018-02-17T21:54:11.467Z,57.83
2018-02-17T21:56:39.970Z,56.17
2018-02-17T21:59:08.477Z,56.07
2018-02-17T22:01:36.967Z,58.33
2018-02-17T22:04:05.465Z,57.30
2018-02-17T22:06:34.019Z,58.37
2018-02-17T22:09:02.538Z,62.03
2018-02-17T22:11:31.042Z,59.60
2018-02-17T22:13:59.546Z,75.37
2018-02-17T22:16:28.024Z,62.83
2018-02-17T22:18:56.531Z,68.57
2018-02-17T22:21:25.002Z,67.10
2018-02-17T22:23:53.462Z,64.03
2018-02-17T22:26:21.962Z,64.20
2018-02-17T22:28:50.427Z,67.97
2018-02-17T22:31:18.938Z,64.57
2018-02-17T22:33:47.453Z,68.33
2018-02-17T22:36:15.929Z,67.33
2018-02-17T22:38:44.442Z,67.33
2018-02-17T22:41:12.920Z,63.40
2018-02-17T22:43:41.437Z,67.03
2018-02-17T22:46:09.901Z,64.77
2018-02-17T22:48:38.410Z,65.07
2018-02-17T22:51:06.906Z,64.70
2018-02-17T22:53:35.383Z,63.50
2018-02-17T22:56:03.877Z,58.27
2018-02-17T22:58:32.366Z,60.43
2018-02-17T23:01:00.875Z,62.97
2018-02-17T23:03:29.341Z,60.23
2018-02-17T23:05:57.858Z,59.43
2018-02-17T23:08:26.339Z,60.27
2018-02-17T23:10:54.820Z,58.20
2018-02-17T23:13:23.327Z,57.70
2018-02-17T23:15:51.809Z,59.37
2018-02-17T23:18:20.315Z,58.53
2018-02-17T23:20:48.821Z,58.80
2018-02-17T23:23:17.323Z,57.77
2018-02-17T23:25:45.861Z,56.07
2018-02-17T23:28:14.414Z,56.13
2018-02-17T23:30:42.883Z,57.57
2018-02-17T23:33:11.361Z,56.33
2018-02-17T23:35:39.873Z,55.37
2018-02-17T23:38:08.335Z,53.37
2018-02-17T23:40:36.909Z,52.33
2018-02-17T23:43:05.411Z,49.87
2018-02-17T23:45:33.874Z,45.13
2018-02-17T23:48:02.338Z,46.43
2018-02-17T23:50:30.846Z,50.23
2018-02-17T23:52:59.311Z,55.07
2018-02-17T23:55:27.810Z,59.30
2018-02-17T23:57:56.270Z,60.80
